Time;durP1;ratioP1;P1;durP2;ratioP2;P2;SDS_P1;SDS_P2;PMS_P1;PMS_P2;Temp;Humidity;BMP_temperature;BMP_pressure;BME280_temperature;BME280_humidity;BME280_pressure;Samples;Min_cycle;Max_cycle;Signal;HPM_P1;HPM_P2
2021/03/23 00:01:41;;;;;;;;;4.75;1.75;;;;;22.95;52.26;99500.00;5038534;28;9775;-76
2021/03/23 00:04:12;;;;;;;;;7.75;7.75;;;;;22.97;52.35;99508.53;5041230;28;9779;-75
2021/03/23 00:06:41;;;;;;;;;10.75;9.50;;;;;23.01;51.74;99511.34;5040292;28;9713;-75
2021/03/23 00:09:10;;;;;;;;;9.75;9.00;;;;;23.03;51.49;99517.19;5033645;28;9787;-76
2021/03/23 00:11:41;;;;;;;;;14.25;11.75;;;;;23.01;51.94;99517.50;5032069;28;10485;-75
2021/03/23 00:14:12;;;;;;;;;12.25;11.00;;;;;22.98;51.84;99509.31;5039353;28;9916;-76
2021/03/23 00:16:43;;;;;;;;;11.50;9.75;;;;;23.04;51.35;99518.75;5032389;28;9937;-75
2021/03/23 00:19:14;;;;;;;;;13.50;12.00;;;;;22.98;52.16;99518.16;5031304;28;9763;-78
2021/03/23 00:21:43;;;;;;;;;13.25;11.50;;;;;23.00;52.19;99525.91;5041077;28;10496;-76
2021/03/23 00:24:11;;;;;;;;;13.75;11.50;;;;;22.96;51.18;99522.31;5044976;28;10596;-76
2021/03/23 00:26:40;;;;;;;;;6.75;4.50;;;;;23.01;51.49;99535.56;5040521;28;10167;-75
2021/03/23 00:29:12;;;;;;;;;10.50;10.50;;;;;22.92;51.69;99524.88;5034867;28;9855;-76
2021/03/23 00:31:41;;;;;;;;;11.25;8.75;;;;;22.92;51.63;99540.22;5042352;28;9931;-76
2021/03/23 00:34:10;;;;;;;;;13.50;10.75;;;;;22.94;51.76;99541.47;5041624;28;10089;-77
2021/03/23 00:36:42;;;;;;;;;14.25;12.25;;;;;22.97;51.66;99545.41;5042222;28;9974;-76
2021/03/23 00:39:11;;;;;;;;;12.00;12.00;;;;;22.98;52.39;99557.75;5037266;28;10037;-76
2021/03/23 00:41:42;;;;;;;;;14.50;14.50;;;;;23.00;51.58;99563.56;5041572;28;9853;-77
2021/03/23 00:44:15;;;;;;;;;13.50;13.50;;;;;23.02;51.65;99558.66;5042934;28;9864;-81
2021/03/23 00:46:44;;;;;;;;;12.50;12.50;;;;;23.02;51.41;99561.34;5050729;28;9840;-83
2021/03/23 00:49:13;;;;;;;;;11.50;10.50;;;;;23.02;51.51;99564.81;5042096;28;10035;-80
2021/03/23 00:51:45;;;;;;;;;10.50;10.50;;;;;22.98;51.24;99555.03;5041589;28;9714;-80
2021/03/23 00:54:14;;;;;;;;;14.25;10.00;;;;;23.05;51.12;99571.44;5042924;28;9974;-84
2021/03/23 00:56:42;;;;;;;;;14.25;11.75;;;;;22.99;51.44;99565.47;5039702;28;10107;-80
2021/03/23 00:59:11;;;;;;;;;29.00;24.25;;;;;23.04;51.59;99586.03;5041800;28;10939;-84
2021/03/23 01:01:45;;;;;;;;;16.67;14.33;;;;;22.93;51.38;99563.31;5035489;28;10813;-84
2021/03/23 01:04:22;;;;;;;;;14.50;13.50;;;;;23.03;51.50;99592.53;5039188;28;10221;-78
2021/03/23 01:06:51;;;;;;;;;11.75;11.25;;;;;22.91;51.87;99577.09;5037182;28;10098;-81
2021/03/23 01:09:26;;;;;;;;;13.50;13.50;;;;;22.96;51.42;99587.66;5060327;28;10087;-87
2021/03/23 01:11:56;;;;;;;;;9.50;9.50;;;;;22.96;51.38;99597.63;5030420;28;9937;-82
2021/03/23 01:14:24;;;;;;;;;11.50;10.00;;;;;23.06;51.43;99599.94;5033213;28;10065;-82
2021/03/23 01:16:53;;;;;;;;;15.50;12.75;;;;;23.04;51.33;99586.81;5030147;28;9948;-79
2021/03/23 01:19:22;;;;;;;;;1.50;0.00;;;;;23.17;51.40;99606.50;5036034;28;9876;-79
2021/03/23 01:21:50;;;;;;;;;16.50;12.25;;;;;23.14;51.12;99598.28;5033230;28;9852;-79
2021/03/23 01:24:34;;;;;;;;;12.25;12.25;;;;;23.24;51.03;99620.22;5031942;28;9857;-76
2021/03/23 01:27:03;;;;;;;;;11.00;8.50;;;;;23.28;51.20;99623.81;5035209;28;11586;-83
2021/03/23 01:29:32;;;;;;;;;9.75;9.75;;;;;23.32;51.06;99616.66;5040372;28;10237;-83
2021/03/23 01:32:01;;;;;;;;;12.50;9.75;;;;;23.39;50.94;99625.00;5043138;28;10619;-82
2021/03/23 01:34:45;;;;;;;;;17.00;14.00;;;;;23.43;50.84;99620.50;5048907;28;10023;-81
2021/03/23 01:37:14;;;;;;;;;17.75;14.75;;;;;23.49;50.99;99623.00;5049856;28;9985;-81
2021/03/23 01:39:43;;;;;;;;;12.75;12.75;;;;;23.51;50.63;99620.75;5049619;28;9994;-80
2021/03/23 01:42:14;;;;;;;;;13.25;13.25;;;;;23.48;50.72;99621.41;5051086;28;10574;-79
2021/03/23 01:44:45;;;;;;;;;14.00;12.25;;;;;23.50;50.64;99619.19;5051273;28;9852;-83
2021/03/23 01:47:13;;;;;;;;;10.75;9.75;;;;;23.54;50.55;99626.28;5048462;28;9759;-79
2021/03/23 01:49:46;;;;;;;;;9.75;9.75;;;;;23.52;50.54;99630.41;5053929;28;9844;-79
2021/03/23 01:52:19;;;;;;;;;10.00;8.50;;;;;23.50;50.47;99629.94;5054495;28;9771;-83
2021/03/23 01:55:08;;;;;;;;;9.00;8.50;;;;;23.47;50.58;99617.94;5046065;28;9602;-80
2021/03/23 01:57:39;;;;;;;;;9.25;8.00;;;;;23.47;50.43;99622.53;5055420;28;9758;-77
2021/03/23 02:00:10;;;;;;;;;11.00;10.00;;;;;23.56;50.53;99644.81;5055191;28;9767;-76
2021/03/23 02:02:39;;;;;;;;;15.50;11.25;;;;;23.53;50.45;99632.78;5054879;28;9730;-77
2021/03/23 02:05:20;;;;;;;;;10.50;9.75;;;;;23.59;50.21;99642.25;5054436;28;9911;-79
2021/03/23 02:07:48;;;;;;;;;11.25;11.25;;;;;23.60;50.20;99645.72;5054301;28;9944;-78
2021/03/23 02:10:17;;;;;;;;;8.75;8.50;;;;;23.58;49.83;99639.88;5054042;28;9786;-78
2021/03/23 02:12:47;;;;;;;;;15.75;9.25;;;;;23.61;50.16;99641.91;5054586;28;9700;-78
2021/03/23 02:15:18;;;;;;;;;14.00;9.75;;;;;23.61;50.21;99640.00;5054885;28;9930;-78
2021/03/23 02:18:07;;;;;;;;;8.75;7.00;;;;;23.60;50.12;99632.25;5055170;28;10023;-79
2021/03/23 02:20:39;;;;;;;;;8.00;8.00;;;;;23.67;50.13;99637.91;5054972;28;9807;-79
2021/03/23 02:23:09;;;;;;;;;11.50;11.50;;;;;23.66;49.49;99641.72;5054368;28;9837;-78
2021/03/23 02:25:38;;;;;;;;;10.25;9.00;;;;;23.63;50.05;99618.94;5054872;28;9712;-78
2021/03/23 02:28:06;;;;;;;;;9.25;7.00;;;;;23.69;49.97;99624.88;5054212;28;9876;-78
2021/03/23 02:30:38;;;;;;;;;10.75;8.50;;;;;23.70;49.89;99623.78;5054597;28;9689;-78
2021/03/23 02:33:08;;;;;;;;;8.75;6.00;;;;;23.79;49.94;99621.00;5054694;28;9713;-78
2021/03/23 02:35:37;;;;;;;;;10.00;9.25;;;;;23.87;50.00;99622.81;5054856;28;9713;-78
2021/03/23 02:38:06;;;;;;;;;11.75;10.25;;;;;23.89;49.29;99632.13;5054647;28;9747;-78
2021/03/23 02:40:34;;;;;;;;;10.25;8.25;;;;;23.96;49.77;99623.50;5054538;28;9850;-78
2021/03/23 02:43:03;;;;;;;;;11.00;9.25;;;;;23.97;49.73;99623.16;5054609;28;9689;-78
2021/03/23 02:45:31;;;;;;;;;15.00;11.50;;;;;23.93;49.76;99621.47;5054242;28;9719;-78
2021/03/23 02:48:00;;;;;;;;;11.50;9.75;;;;;23.99;49.42;99620.94;5054590;28;9706;-79
2021/03/23 02:50:28;;;;;;;;;8.00;8.00;;;;;24.08;49.64;99637.78;5054498;28;9686;-78
2021/03/23 02:52:57;;;;;;;;;0.50;0.50;;;;;24.09;49.21;99614.31;5051743;28;9771;-79
2021/03/23 02:55:25;;;;;;;;;8.75;8.75;;;;;24.07;49.58;99606.56;5051888;28;9633;-79
2021/03/23 02:57:53;;;;;;;;;12.25;10.25;;;;;24.19;49.40;99621.19;5052385;28;9701;-82
2021/03/23 03:00:22;;;;;;;;;11.00;9.25;;;;;24.29;49.31;99620.78;5030242;28;9766;-83
2021/03/23 03:02:52;;;;;;;;;10.00;7.75;;;;;24.31;49.35;99613.91;5043523;28;10337;-79
2021/03/23 03:05:21;;;;;;;;;8.75;8.75;;;;;24.39;49.25;99617.63;5052690;28;9720;-83
2021/03/23 03:07:49;;;;;;;;;10.25;9.00;;;;;24.43;49.10;99613.13;5052312;28;9688;-82
2021/03/23 03:10:18;;;;;;;;;6.75;5.00;;;;;24.42;49.05;99600.00;5052362;28;9631;-82
2021/03/23 03:12:47;;;;;;;;;14.75;13.00;;;;;24.52;49.01;99605.72;5053298;28;9625;-80
2021/03/23 03:15:16;;;;;;;;;13.75;9.25;;;;;24.55;48.65;99604.25;5051912;28;10664;-81
2021/03/23 03:17:44;;;;;;;;;8.00;6.00;;;;;24.56;48.86;99598.53;5054440;28;9692;-85
2021/03/23 03:20:14;;;;;;;;;10.50;10.25;;;;;24.60;48.86;99612.91;5048411;28;9564;-79
2021/03/23 03:22:43;;;;;;;;;10.00;9.75;;;;;24.61;48.83;99598.28;5049206;28;9481;-84
2021/03/23 03:25:13;;;;;;;;;9.50;7.00;;;;;24.65;48.58;99599.19;5053796;28;9480;-80
2021/03/23 03:27:42;;;;;;;;;13.00;10.75;;;;;24.62;48.67;99585.59;5052710;28;9550;-82
2021/03/23 03:30:26;;;;;;;;;8.00;8.00;;;;;24.62;48.50;99586.38;5052427;28;9625;-85
2021/03/23 03:32:58;;;;;;;;;8.50;8.50;;;;;24.58;48.68;99566.59;5056013;28;9566;-85
2021/03/23 03:35:30;;;;;;;;;10.00;8.00;;;;;24.73;48.64;99573.19;5052422;28;9645;-86
2021/03/23 03:37:58;;;;;;;;;9.33;9.00;;;;;24.82;48.40;99573.06;5053505;28;9454;-84
2021/03/23 03:40:32;;;;;;;;;3.33;2.33;;;;;24.81;48.26;99558.78;5057981;28;10270;-85
2021/03/23 03:43:00;;;;;;;;;11.25;9.75;;;;;24.90;47.93;99564.81;5052630;28;9392;-81
2021/03/23 03:45:28;;;;;;;;;11.33;8.00;;;;;24.95;48.10;99571.88;5052204;28;9473;-83
2021/03/23 03:47:58;;;;;;;;;9.00;9.00;;;;;24.85;47.96;99551.56;5052309;28;9391;-83
2021/03/23 03:50:28;;;;;;;;;8.00;7.33;;;;;25.02;48.28;99553.22;5052488;28;10182;-86
2021/03/23 03:52:57;;;;;;;;;8.67;8.67;;;;;25.10;48.57;99548.81;5051200;28;9448;-83
2021/03/23 03:55:35;;;;;;;;;6.67;6.67;;;;;25.20;48.10;99543.72;5052776;28;9394;-79
2021/03/23 03:58:04;;;;;;;;;8.00;8.00;;;;;25.22;47.90;99541.44;5052542;28;9418;-82
2021/03/23 04:00:33;;;;;;;;;7.67;7.00;;;;;25.20;47.63;99535.63;5048917;28;9458;-80
2021/03/23 04:03:05;;;;;;;;;9.67;8.33;;;;;25.18;47.76;99518.19;5052661;28;9100;-83
2021/03/23 04:05:36;;;;;;;;;8.67;7.33;;;;;25.25;47.53;99527.25;5053092;28;9330;-83
2021/03/23 04:08:07;;;;;;;;;9.67;8.00;;;;;25.35;47.59;99525.97;5063679;28;10043;-78
2021/03/23 04:10:36;;;;;;;;;9.33;6.67;;;;;25.37;47.38;99502.09;5044008;28;9252;-79
2021/03/23 04:13:09;;;;;;;;;9.00;7.00;;;;;25.26;47.44;99485.63;5044019;28;9144;-81
2021/03/23 04:15:41;;;;;;;;;9.00;7.67;;;;;25.47;46.82;99509.72;5041633;28;9198;-81
2021/03/23 04:18:10;;;;;;;;;7.00;7.00;;;;;25.49;47.54;99495.84;5045936;28;9989;-79
2021/03/23 04:20:40;;;;;;;;;9.67;8.00;;;;;25.52;47.32;99495.94;5043032;28;9165;-87
2021/03/23 04:23:18;;;;;;;;;8.67;8.67;;;;;25.63;47.48;99494.28;5044178;28;9181;-81
2021/03/23 04:25:46;;;;;;;;;7.33;5.00;;;;;25.70;47.23;99491.00;5037296;28;9206;-79
2021/03/23 04:28:15;;;;;;;;;13.33;10.00;;;;;25.75;46.94;99484.56;5025803;28;9069;-81
2021/03/23 04:30:43;;;;;;;;;7.33;7.00;;;;;25.78;47.23;99478.47;5019732;28;9083;-86
2021/03/23 04:33:12;;;;;;;;;9.67;8.67;;;;;25.81;46.94;99469.66;5021368;28;8922;-81
2021/03/23 04:35:41;;;;;;;;;7.67;7.67;;;;;25.85;47.17;99470.53;5023769;28;9186;-82
2021/03/23 04:38:11;;;;;;;;;10.67;8.00;;;;;25.93;47.29;99464.16;5019224;28;9156;-75
2021/03/23 04:40:40;;;;;;;;;11.33;10.00;;;;;26.00;46.71;99459.66;5011225;28;9084;-77
2021/03/23 04:43:09;;;;;;;;;7.67;6.00;;;;;26.10;46.90;99455.63;5011255;28;9091;-75
2021/03/23 04:45:40;;;;;;;;;8.67;8.00;;;;;26.11;47.06;99438.25;5011465;28;9070;-76
2021/03/23 04:48:09;;;;;;;;;8.00;7.00;;;;;26.22;47.04;99446.59;5011378;28;9097;-80
2021/03/23 04:50:37;;;;;;;;;11.00;8.00;;;;;26.26;46.72;99434.72;5010294;28;9008;-79
2021/03/23 04:53:06;;;;;;;;;8.67;8.67;;;;;26.32;46.49;99433.34;5014287;28;8932;-80
2021/03/23 04:55:37;;;;;;;;;7.25;7.25;;;;;26.36;46.29;99435.34;5024620;28;9021;-82
2021/03/23 04:58:05;;;;;;;;;2.00;1.50;;;;;26.39;46.25;99429.22;5024676;28;8901;-82
2021/03/23 05:00:33;;;;;;;;;13.67;10.33;;;;;26.39;46.54;99413.78;5010840;28;8846;-78
2021/03/23 05:03:03;;;;;;;;;10.25;9.25;;;;;26.48;46.78;99410.84;5013261;28;8930;-77
2021/03/23 05:05:31;;;;;;;;;10.25;7.50;;;;;26.54;45.73;99404.03;5024746;28;8917;-78
2021/03/23 05:08:00;;;;;;;;;8.00;7.00;;;;;26.63;46.43;99405.38;5020402;28;8862;-82
2021/03/23 05:10:29;;;;;;;;;7.25;6.00;;;;;26.70;46.25;99390.41;5017340;28;8928;-83
2021/03/23 05:13:00;;;;;;;;;8.75;8.00;;;;;26.71;46.39;99371.09;5022425;28;8850;-82
2021/03/23 05:15:30;;;;;;;;;7.00;7.00;;;;;26.72;46.30;99361.06;5017573;28;8855;-83
2021/03/23 05:18:01;;;;;;;;;6.50;5.75;;;;;26.82;46.03;99368.59;5042565;28;8842;-83
2021/03/23 05:20:35;;;;;;;;;7.25;7.25;;;;;26.86;45.82;99369.44;5016369;28;8845;-80
2021/03/23 05:23:04;;;;;;;;;8.00;7.25;;;;;26.74;45.58;99340.63;5021503;28;8952;-83
2021/03/23 05:25:34;;;;;;;;;7.50;6.75;;;;;26.93;45.62;99347.91;5041010;28;8839;-78
2021/03/23 05:28:03;;;;;;;;;7.50;7.50;;;;;26.98;45.68;99333.31;5034719;28;8855;-77
2021/03/23 05:30:34;;;;;;;;;7.75;6.75;;;;;27.06;45.73;99333.06;5019159;28;8970;-80
2021/03/23 05:33:10;;;;;;;;;6.75;6.75;;;;;27.20;45.54;99324.41;5040732;28;8843;-80
2021/03/23 05:35:41;;;;;;;;;8.00;5.75;;;;;27.09;45.52;99302.56;5038053;28;8855;-78
2021/03/23 05:38:09;;;;;;;;;10.25;7.50;;;;;27.27;45.25;99310.97;5040118;28;8855;-77
2021/03/23 05:40:42;;;;;;;;;9.00;9.00;;;;;27.31;45.35;99314.47;5031973;28;8863;-81
2021/03/23 05:43:30;;;;;;;;;7.00;7.00;;;;;27.39;45.19;99308.03;5032277;28;8850;-85
2021/03/23 05:46:18;;;;;;;;;7.75;7.00;;;;;27.47;45.13;99301.56;5036758;28;8868;-80
2021/03/23 05:48:56;;;;;;;;;10.25;10.25;;;;;27.54;45.20;99298.94;5038572;28;8823;-75
2021/03/23 05:51:40;;;;;;;;;11.00;8.00;;;;;27.51;44.96;99283.41;5025201;28;9644;-76
2021/03/23 05:54:23;;;;;;;;;9.25;8.75;;;;;27.66;45.01;99292.56;5039966;28;8856;-78
2021/03/23 05:57:00;;;;;;;;;6.75;6.75;;;;;27.69;44.61;99277.50;5048724;28;8852;-79
2021/03/23 05:59:44;;;;;;;;;9.00;8.00;;;;;27.75;44.54;99279.50;5048727;28;8880;-78
2021/03/23 06:02:38;;;;;;;;;7.75;7.75;;;;;27.82;44.85;99267.97;5040155;28;8843;-80
2021/03/23 06:05:19;;;;;;;;;7.75;7.75;;;;;27.89;44.68;99260.72;5032722;28;8889;-83
2021/03/23 06:08:23;;;;;;;;;6.50;6.50;;;;;28.03;44.57;99248.47;5031157;28;8894;-80
2021/03/23 06:11:16;;;;;;;;;7.50;7.50;;;;;28.08;44.56;99256.28;5029976;28;8859;-80
2021/03/23 06:14:00;;;;;;;;;9.50;8.25;;;;;28.12;44.34;99246.25;5033549;28;8865;-75
2021/03/23 06:16:48;;;;;;;;;8.50;7.75;;;;;28.12;44.17;99235.41;5037261;28;8856;-77
2021/03/23 06:19:40;;;;;;;;;10.75;8.00;;;;;28.20;44.33;99228.88;5034568;28;8859;-80
2021/03/23 06:22:32;;;;;;;;;7.75;7.75;;;;;28.21;44.07;99233.94;5039240;28;8952;-77
2021/03/23 06:25:18;;;;;;;;;7.75;6.75;;;;;28.25;43.62;99223.94;5036453;28;8855;-81
2021/03/23 06:27:54;;;;;;;;;8.75;8.75;;;;;28.29;44.25;99201.50;5035944;28;8944;-80
2021/03/23 06:30:47;;;;;;;;;11.75;7.75;;;;;28.43;44.20;99210.53;5043709;28;8941;-77
2021/03/23 06:33:21;;;;;;;;;6.75;6.75;;;;;28.45;43.96;99208.22;5043899;28;8846;-77
2021/03/23 06:35:58;;;;;;;;;8.25;7.00;;;;;28.43;44.00;99194.25;5042735;28;8838;-78
2021/03/23 06:38:41;;;;;;;;;8.50;7.50;;;;;28.51;43.48;99195.09;5043812;28;8832;-78
2021/03/23 06:41:22;;;;;;;;;6.25;6.25;;;;;28.67;43.88;99192.09;5041554;28;8867;-77
2021/03/23 06:43:59;;;;;;;;;6.75;6.75;;;;;28.73;43.73;99177.78;5047476;28;8957;-79
2021/03/23 06:46:42;;;;;;;;;6.00;6.00;;;;;28.81;43.28;99184.81;5044491;28;8872;-76
2021/03/23 06:49:14;;;;;;;;;5.50;5.50;;;;;28.88;43.23;99173.25;5042768;28;8855;-75
2021/03/23 06:51:51;;;;;;;;;6.25;6.25;;;;;28.95;41.99;99167.88;5044840;28;8848;-78
2021/03/23 06:54:25;;;;;;;;;8.50;8.50;;;;;29.05;43.58;99166.38;5043379;28;8866;-81
2021/03/23 06:57:01;;;;;;;;;4.00;4.00;;;;;29.13;43.27;99157.88;5041958;28;8826;-79
2021/03/23 06:59:34;;;;;;;;;5.75;5.75;;;;;29.14;43.29;99154.00;5049076;28;8848;-77
2021/03/23 07:02:03;;;;;;;;;6.00;6.00;;;;;29.12;42.63;99144.69;5040359;28;8854;-75
2021/03/23 07:04:40;;;;;;;;;8.25;8.25;;;;;29.13;42.63;99148.97;5036970;28;9571;-76
2021/03/23 07:07:12;;;;;;;;;7.00;7.00;;;;;29.22;42.15;99139.31;5035548;28;8875;-76
2021/03/23 07:09:49;;;;;;;;;7.50;7.50;;;;;29.34;43.25;99129.25;5042626;28;8856;-78
2021/03/23 07:12:19;;;;;;;;;6.50;6.50;;;;;29.38;43.13;99121.91;5039389;28;9609;-75
2021/03/23 07:14:50;;;;;;;;;7.50;7.50;;;;;29.41;42.77;99126.56;5038008;28;8831;-77
2021/03/23 07:17:28;;;;;;;;;5.75;5.75;;;;;29.37;42.49;99123.06;5034245;28;8938;-78
2021/03/23 07:20:08;;;;;;;;;6.00;6.00;;;;;29.38;42.71;99122.69;5040956;28;8945;-78
2021/03/23 07:22:51;;;;;;;;;5.25;5.25;;;;;29.38;41.31;99111.03;5034331;28;8882;-79
2021/03/23 07:25:35;;;;;;;;;7.00;7.00;;;;;29.45;42.93;99101.00;5037023;28;8867;-77
2021/03/23 07:28:33;;;;;;;;;6.00;6.00;;;;;29.49;42.94;99092.84;5039307;28;8867;-78
2021/03/23 07:31:04;;;;;;;;;7.25;7.25;;;;;29.50;42.69;99088.97;5036851;28;8953;-78
2021/03/23 07:33:59;;;;;;;;;7.25;7.25;;;;;29.48;42.58;99083.91;5039166;28;8954;-78
2021/03/23 07:36:59;;;;;;;;;5.75;5.75;;;;;29.51;42.70;99074.22;5039163;28;8875;-78
2021/03/23 07:39:35;;;;;;;;;6.50;6.50;;;;;29.54;42.66;99073.44;5037398;28;8886;-78
2021/03/23 07:42:11;;;;;;;;;6.75;6.75;;;;;29.54;42.40;99062.56;5038063;28;8859;-78
2021/03/23 07:45:19;;;;;;;;;6.25;6.25;;;;;29.54;42.69;99059.84;5045269;28;8846;-76
2021/03/23 07:48:05;;;;;;;;;7.00;7.00;;;;;29.60;42.52;99044.72;5037975;28;9616;-77
2021/03/23 07:50:37;;;;;;;;;5.25;5.25;;;;;29.67;42.46;99039.28;5035481;28;8985;-78
2021/03/23 07:53:23;;;;;;;;;7.25;7.25;;;;;29.73;41.54;99045.91;5042199;28;8961;-79
2021/03/23 07:55:52;;;;;;;;;7.67;7.67;;;;;29.72;41.28;99024.53;5047320;28;8832;-79
2021/03/23 07:58:44;;;;;;;;;5.50;5.50;;;;;29.84;42.65;99024.16;5048743;28;8846;-79
2021/03/23 08:01:37;;;;;;;;;7.25;7.25;;;;;29.84;42.13;99018.72;5040212;28;8890;-79
2021/03/23 08:04:15;;;;;;;;;6.75;6.75;;;;;29.79;42.14;99011.72;5038681;28;8858;-81
2021/03/23 08:07:03;;;;;;;;;5.25;5.25;;;;;29.78;41.04;99001.22;5041946;28;9674;-82
2021/03/23 08:09:54;;;;;;;;;6.75;6.75;;;;;29.89;42.34;99001.22;5035051;28;8852;-82
2021/03/23 08:12:38;;;;;;;;;6.75;6.75;;;;;29.93;41.93;98994.59;5042800;28;8970;-78
2021/03/23 08:15:25;;;;;;;;;7.00;7.00;;;;;29.99;42.31;98997.69;5040759;28;8949;-79
2021/03/23 08:18:17;;;;;;;;;5.00;5.00;;;;;29.98;42.02;98994.19;5038751;28;9612;-76
2021/03/23 08:21:01;;;;;;;;;8.00;8.00;;;;;29.93;42.05;98994.59;5035331;28;8862;-88
2021/03/23 08:23:54;;;;;;;;;6.50;6.50;;;;;29.92;42.09;98986.81;5042058;28;8897;-86
2021/03/23 08:26:36;;;;;;;;;5.50;5.50;;;;;29.95;41.94;98983.31;5050412;28;8848;-82
2021/03/23 08:29:20;;;;;;;;;2.75;2.75;;;;;30.02;41.85;98988.78;5059242;28;8851;-78
2021/03/23 08:32:21;;;;;;;;;11.25;11.25;;;;;30.08;41.72;98976.34;5048246;28;8851;-82
2021/03/23 08:35:08;;;;;;;;;11.75;11.75;;;;;30.01;41.96;98963.53;5042597;28;8894;-86
2021/03/23 08:37:46;;;;;;;;;6.25;6.25;;;;;30.11;41.96;98970.13;5048712;28;8836;-84
2021/03/23 08:40:40;;;;;;;;;8.75;8.75;;;;;30.11;41.77;98954.56;5044036;28;8843;-86
2021/03/23 08:43:16;;;;;;;;;5.75;5.75;;;;;29.96;41.77;98939.41;5045527;28;8835;-86
2021/03/23 08:45:50;;;;;;;;;6.00;6.00;;;;;29.78;40.42;98914.22;5041473;28;8812;-80
2021/03/23 08:48:38;;;;;;;;;6.75;6.75;;;;;30.11;41.54;98954.56;5034649;28;8853;-82
2021/03/23 08:51:11;;;;;;;;;4.25;4.25;;;;;30.04;41.49;98940.19;5040460;28;8853;-81
2021/03/23 08:53:46;;;;;;;;;6.25;6.00;;;;;29.96;41.40;98931.25;5050377;28;9801;-80
2021/03/23 08:56:45;;;;;;;;;6.25;6.25;;;;;30.03;41.51;98941.38;5037026;28;8864;-82
2021/03/23 08:59:36;;;;;;;;;6.50;6.50;;;;;30.04;41.37;98943.69;5038377;28;8933;-81
2021/03/23 09:02:07;;;;;;;;;8.00;7.00;;;;;30.01;41.32;98944.47;5040462;28;8899;-78
2021/03/23 09:04:42;;;;;;;;;8.33;8.33;;;;;30.04;40.97;98943.69;5037890;28;8816;-79
2021/03/23 09:07:12;;;;;;;;;9.25;9.25;;;;;30.10;41.47;98938.63;5040054;28;8855;-76
2021/03/23 09:09:48;;;;;;;;;9.75;9.75;;;;;30.03;41.51;98934.00;5035808;28;8839;-75
2021/03/23 09:12:42;;;;;;;;;8.75;8.75;;;;;30.12;41.23;98930.84;5037032;28;8836;-75
2021/03/23 09:15:26;;;;;;;;;8.50;8.50;;;;;30.11;41.37;98929.31;5036492;28;8852;-78
2021/03/23 09:18:05;;;;;;;;;6.00;6.00;;;;;30.13;41.06;98933.19;5033047;28;9639;-77
2021/03/23 09:20:35;;;;;;;;;5.75;5.75;;;;;30.12;40.58;98928.13;5033932;28;8878;-77
2021/03/23 09:23:18;;;;;;;;;8.75;8.75;;;;;30.15;41.48;98925.41;5033027;28;8850;-77
2021/03/23 09:25:58;;;;;;;;;7.75;7.75;;;;;30.21;41.43;98919.56;5034457;28;8838;-78
2021/03/23 09:28:34;;;;;;;;;15.00;13.00;;;;;30.24;41.46;98924.22;5033473;28;8876;-81
2021/03/23 09:31:12;;;;;;;;;6.25;6.25;;;;;30.22;40.83;98921.91;5034870;28;8961;-81
2021/03/23 09:33:43;;;;;;;;;10.00;9.00;;;;;30.24;41.71;98927.72;5037351;28;8853;-82
2021/03/23 09:36:13;;;;;;;;;5.75;5.75;;;;;30.23;41.91;98926.16;5051308;28;8864;-78
2021/03/23 09:38:48;;;;;;;;;9.25;9.25;;;;;30.18;40.93;98921.91;5050393;28;8851;-79
2021/03/23 09:41:20;;;;;;;;;11.50;11.50;;;;;30.15;41.56;98930.06;5047242;28;8859;-77
2021/03/23 09:44:10;;;;;;;;;7.75;7.75;;;;;30.11;41.76;98921.16;5037872;28;8844;-78
2021/03/23 09:46:48;;;;;;;;;6.25;6.25;;;;;30.13;41.57;98937.84;5037048;28;8963;-78
2021/03/23 09:49:20;;;;;;;;;9.75;9.75;;;;;30.05;41.40;98928.94;5045161;28;8817;-79
2021/03/23 09:52:03;;;;;;;;;9.50;9.50;;;;;30.13;41.64;98943.28;5034360;28;8920;-78
2021/03/23 09:54:35;;;;;;;;;8.75;8.75;;;;;29.90;41.44;98913.03;5037934;28;8833;-77
2021/03/23 09:57:16;;;;;;;;;7.25;7.25;;;;;30.10;41.48;98942.13;5035859;28;8854;-79
2021/03/23 10:00:26;;;;;;;;;9.25;9.25;;;;;30.10;41.29;98935.91;5038239;28;8911;-76
2021/03/23 10:02:55;;;;;;;;;10.50;9.75;;;;;30.12;41.45;98936.31;5037213;28;8867;-79
2021/03/23 10:05:30;;;;;;;;;8.75;8.75;;;;;30.09;41.87;98937.09;5044237;28;8831;-74
2021/03/23 10:08:13;;;;;;;;;8.50;8.50;;;;;30.10;41.53;98944.84;5042096;28;8855;-76
2021/03/23 10:10:41;;;;;;;;;8.25;7.75;;;;;30.08;41.61;98939.03;5043709;28;8850;-76
2021/03/23 10:13:30;;;;;;;;;9.50;9.50;;;;;30.07;42.09;98940.19;5044941;28;8845;-73
2021/03/23 10:16:06;;;;;;;;;8.25;8.25;;;;;30.01;41.91;98928.16;5047317;28;8871;-75
2021/03/23 10:18:39;;;;;;;;;12.00;11.50;;;;;29.99;41.76;98929.69;5039730;28;8819;-73
2021/03/23 10:21:15;;;;;;;;;7.75;7.50;;;;;30.00;42.08;98936.69;5042971;28;8869;-74
2021/03/23 10:23:50;;;;;;;;;6.25;6.25;;;;;30.02;41.59;98937.09;5034459;28;8842;-74
2021/03/23 10:26:19;;;;;;;;;6.25;6.25;;;;;29.97;42.05;98935.53;5034725;28;8931;-74
2021/03/23 10:28:49;;;;;;;;;8.50;8.50;;;;;29.96;41.29;98939.41;5034476;28;8870;-75
2021/03/23 10:31:35;;;;;;;;;7.75;7.75;;;;;30.02;41.84;98945.25;5041827;28;9619;-75
2021/03/23 10:34:09;;;;;;;;;7.75;7.75;;;;;29.94;41.78;98939.03;5045783;28;8835;-80
2021/03/23 10:36:50;;;;;;;;;9.25;9.25;;;;;29.97;42.00;98953.78;5054617;28;8880;-73
2021/03/23 10:39:35;;;;;;;;;8.00;8.00;;;;;29.90;41.82;98951.09;5054199;28;8852;-74
2021/03/23 10:42:24;;;;;;;;;10.00;10.00;;;;;29.83;42.11;98946.44;5039931;28;9604;-76
2021/03/23 10:45:17;;;;;;;;;7.25;7.25;;;;;29.78;42.11;98960.44;5038639;28;9608;-74
2021/03/23 10:47:46;;;;;;;;;9.50;9.50;;;;;29.71;42.36;98953.06;5051430;28;9597;-74
2021/03/23 10:50:22;;;;;;;;;9.25;9.25;;;;;29.65;42.27;98946.47;5035041;28;8861;-76
2021/03/23 10:52:51;;;;;;;;;9.00;9.00;;;;;29.59;42.25;98953.47;5036202;28;8835;-76
2021/03/23 10:55:37;;;;;;;;;7.25;7.25;;;;;29.56;42.72;98956.16;5047726;28;8852;-75
2021/03/23 10:58:19;;;;;;;;;9.75;9.75;;;;;29.48;42.35;98953.44;5045168;28;8853;-76
2021/03/23 11:01:09;;;;;;;;;12.25;12.25;;;;;29.48;42.43;98956.16;5037691;28;8823;-76
2021/03/23 11:03:41;;;;;;;;;15.50;14.50;;;;;29.44;42.66;98960.06;5033989;28;8835;-76
2021/03/23 11:06:34;;;;;;;;;13.75;13.75;;;;;29.38;42.51;98954.19;5042013;28;8832;-76
2021/03/23 11:09:07;;;;;;;;;11.50;11.50;;;;;29.35;42.50;98956.91;5051278;28;8847;-75
2021/03/23 11:11:37;;;;;;;;;7.25;7.25;;;;;29.26;43.26;98949.13;5042996;28;8843;-76
2021/03/23 11:14:05;;;;;;;;;12.75;12.75;;;;;29.30;43.18;98963.50;5044072;28;8950;-75
2021/03/23 11:16:36;;;;;;;;;11.25;11.25;;;;;29.25;43.13;98953.00;5035472;28;8850;-75
2021/03/23 11:19:19;;;;;;;;;12.25;12.25;;;;;29.23;43.25;98963.50;5037859;28;8908;-75
2021/03/23 11:21:47;;;;;;;;;1.75;1.75;;;;;29.18;43.29;98961.94;5037538;28;8875;-75
2021/03/23 11:24:16;;;;;;;;;13.50;13.50;;;;;29.15;43.28;98965.41;5038154;28;8847;-74
2021/03/23 11:26:45;;;;;;;;;14.75;13.50;;;;;29.12;43.02;98968.91;5037649;28;8867;-75
2021/03/23 11:29:14;;;;;;;;;15.00;14.50;;;;;29.08;43.32;98968.13;5034637;28;8956;-75
2021/03/23 11:31:42;;;;;;;;;16.00;16.00;;;;;29.03;43.39;98962.28;5039431;28;8855;-75
2021/03/23 11:34:11;;;;;;;;;15.50;15.50;;;;;28.96;43.62;98957.59;5040123;28;8947;-75
2021/03/23 11:36:39;;;;;;;;;15.00;15.00;;;;;28.90;43.68;98946.34;5039286;28;8877;-76
2021/03/23 11:39:09;;;;;;;;;17.00;17.00;;;;;28.97;43.73;98967.31;5039912;28;8977;-75
2021/03/23 11:41:43;;;;;;;;;21.00;20.00;;;;;28.92;43.56;98962.25;5040643;28;8953;-75
2021/03/23 11:44:24;;;;;;;;;25.25;23.50;;;;;28.94;43.41;98964.59;5042875;28;8828;-75
2021/03/23 11:47:10;;;;;;;;;20.50;20.50;;;;;28.93;43.56;98977.38;5038635;28;8815;-75
2021/03/23 11:49:41;;;;;;;;;14.00;14.00;;;;;28.94;43.21;98981.66;5045686;28;8871;-75
2021/03/23 11:52:10;;;;;;;;;17.25;17.25;;;;;28.94;43.62;98983.59;5038967;28;8869;-74
2021/03/23 11:54:38;;;;;;;;;15.00;15.00;;;;;28.89;43.35;98980.09;5042109;28;8945;-74
2021/03/23 11:57:07;;;;;;;;;15.50;15.50;;;;;28.82;43.75;98982.78;5041644;28;8890;-75
2021/03/23 11:59:36;;;;;;;;;17.75;17.75;;;;;28.81;43.75;98985.84;5038932;28;8827;-76
2021/03/23 12:02:05;;;;;;;;;12.75;12.75;;;;;28.68;43.63;98968.34;5036922;28;8853;-75
2021/03/23 12:04:34;;;;;;;;;12.75;12.75;;;;;28.71;42.92;98981.16;5038023;28;8852;-74
2021/03/23 12:07:31;;;;;;;;;13.75;13.75;;;;;28.68;42.82;98977.25;5033362;28;8850;-74
2021/03/23 12:10:19;;;;;;;;;14.75;14.75;;;;;28.77;43.67;98993.97;5040983;28;8944;-73
2021/03/23 12:13:15;;;;;;;;;17.50;17.50;;;;;28.78;43.60;99000.19;5042329;28;8847;-73
2021/03/23 12:15:58;;;;;;;;;16.75;16.00;;;;;28.78;43.80;99002.91;5037753;28;8870;-73